sensor_id;sensor_type;location;lat;lon;timestamp;P1;durP1;ratioP1;P2;durP2;ratioP2
82873;SDS011;72647;51.622;7.540;2023-12-20T00:01:06;0.40;;;0.40;;
82873;SDS011;72647;51.622;7.540;2023-12-20T00:03:06;0.77;;;0.77;;
82873;SDS011;72647;51.622;7.540;2023-12-20T00:05:06;2.67;;;1.52;;
82873;SDS011;72647;51.622;7.540;2023-12-20T00:07:07;1.13;;;1.02;;
82873;SDS011;72647;51.622;7.540;2023-12-20T00:09:07;1.60;;;1.50;;
82873;SDS011;72647;51.622;7.540;2023-12-20T00:11:07;0.90;;;0.73;;
82873;SDS011;72647;51.622;7.540;2023-12-20T00:13:08;3.30;;;0.80;;
82873;SDS011;72647;51.622;7.540;2023-12-20T00:15:09;3.75;;;0.63;;
82873;SDS011;72647;51.622;7.540;2023-12-20T00:17:09;0.87;;;0.43;;
82873;SDS011;72647;51.622;7.540;2023-12-20T00:19:09;2.73;;;0.73;;
82873;SDS011;72647;51.622;7.540;2023-12-20T00:21:09;0.00;;;0.00;;
82873;SDS011;72647;51.622;7.540;2023-12-20T00:23:10;1.60;;;0.40;;
82873;SDS011;72647;51.622;7.540;2023-12-20T00:25:10;0.53;;;0.53;;
82873;SDS011;72647;51.622;7.540;2023-12-20T00:27:10;1.07;;;0.63;;
82873;SDS011;72647;51.622;7.540;2023-12-20T00:29:10;7.73;;;1.07;;
82873;SDS011;72647;51.622;7.540;2023-12-20T00:31:10;0.53;;;0.53;;
82873;SDS011;72647;51.622;7.540;2023-12-20T00:33:11;0.57;;;0.57;;
82873;SDS011;72647;51.622;7.540;2023-12-20T00:35:11;4.63;;;0.80;;
82873;SDS011;72647;51.622;7.540;2023-12-20T00:37:11;1.80;;;1.52;;
82873;SDS011;72647;51.622;7.540;2023-12-20T00:39:11;0.93;;;0.93;;
82873;SDS011;72647;51.622;7.540;2023-12-20T00:41:12;1.00;;;0.40;;
82873;SDS011;72647;51.622;7.540;2023-12-20T00:43:12;7.60;;;1.63;;
82873;SDS011;72647;51.622;7.540;2023-12-20T00:45:12;0.90;;;0.63;;
82873;SDS011;72647;51.622;7.540;2023-12-20T00:47:13;1.55;;;1.45;;
82873;SDS011;72647;51.622;7.540;2023-12-20T00:49:13;0.65;;;0.65;;
82873;SDS011;72647;51.622;7.540;2023-12-20T00:51:13;0.53;;;0.30;;
82873;SDS011;72647;51.622;7.540;2023-12-20T00:53:14;2.72;;;1.63;;
82873;SDS011;72647;51.622;7.540;2023-12-20T00:55:14;0.00;;;0.00;;
82873;SDS011;72647;51.622;7.540;2023-12-20T00:57:14;2.10;;;1.90;;
82873;SDS011;72647;51.622;7.540;2023-12-20T00:59:16;0.40;;;0.40;;
82873;SDS011;72647;51.622;7.540;2023-12-20T01:01:16;0.57;;;0.57;;
82873;SDS011;72647;51.622;7.540;2023-12-20T01:03:16;3.05;;;1.63;;
82873;SDS011;72647;51.622;7.540;2023-12-20T01:05:17;0.73;;;0.73;;
82873;SDS011;72647;51.622;7.540;2023-12-20T01:07:18;4.65;;;1.52;;
82873;SDS011;72647;51.622;7.540;2023-12-20T01:09:18;0.00;;;0.00;;
82873;SDS011;72647;51.622;7.540;2023-12-20T01:11:19;0.27;;;0.20;;
82873;SDS011;72647;51.622;7.540;2023-12-20T01:13:20;2.57;;;1.13;;
82873;SDS011;72647;51.622;7.540;2023-12-20T01:15:20;0.38;;;0.38;;
82873;SDS011;72647;51.622;7.540;2023-12-20T01:17:20;0.13;;;0.13;;
82873;SDS011;72647;51.622;7.540;2023-12-20T01:19:21;0.40;;;0.40;;
82873;SDS011;72647;51.622;7.540;2023-12-20T01:21:21;0.10;;;0.10;;
82873;SDS011;72647;51.622;7.540;2023-12-20T01:23:24;0.30;;;0.20;;
82873;SDS011;72647;51.622;7.540;2023-12-20T01:25:25;0.08;;;0.08;;
82873;SDS011;72647;51.622;7.540;2023-12-20T01:27:26;0.88;;;0.40;;
82873;SDS011;72647;51.622;7.540;2023-12-20T01:29:26;0.27;;;0.20;;
82873;SDS011;72647;51.622;7.540;2023-12-20T01:31:26;0.30;;;0.30;;
82873;SDS011;72647;51.622;7.540;2023-12-20T01:33:27;0.15;;;0.15;;
82873;SDS011;72647;51.622;7.540;2023-12-20T01:35:27;0.23;;;0.23;;
82873;SDS011;72647;51.622;7.540;2023-12-20T01:37:27;0.00;;;0.00;;
82873;SDS011;72647;51.622;7.540;2023-12-20T01:39:29;0.55;;;0.47;;
82873;SDS011;72647;51.622;7.540;2023-12-20T01:41:29;3.83;;;0.67;;
82873;SDS011;72647;51.622;7.540;2023-12-20T01:43:29;0.00;;;0.00;;
82873;SDS011;72647;51.622;7.540;2023-12-20T01:45:30;0.03;;;0.03;;
82873;SDS011;72647;51.622;7.540;2023-12-20T01:47:30;0.00;;;0.00;;
82873;SDS011;72647;51.622;7.540;2023-12-20T01:49:30;1.20;;;0.13;;
82873;SDS011;72647;51.622;7.540;2023-12-20T01:51:31;0.73;;;0.33;;
82873;SDS011;72647;51.622;7.540;2023-12-20T01:55:33;1.13;;;0.90;;
82873;SDS011;72647;51.622;7.540;2023-12-20T01:57:34;0.35;;;0.35;;
82873;SDS011;72647;51.622;7.540;2023-12-20T01:59:35;0.10;;;0.10;;
82873;SDS011;72647;51.622;7.540;2023-12-20T02:01:36;9.95;;;0.63;;
82873;SDS011;72647;51.622;7.540;2023-12-20T02:03:36;0.20;;;0.05;;
82873;SDS011;72647;51.622;7.540;2023-12-20T02:05:38;0.15;;;0.15;;
82873;SDS011;72647;51.622;7.540;2023-12-20T02:07:38;0.82;;;0.45;;
82873;SDS011;72647;51.622;7.540;2023-12-20T02:09:39;0.00;;;0.00;;
82873;SDS011;72647;51.622;7.540;2023-12-20T02:11:39;0.22;;;0.22;;
82873;SDS011;72647;51.622;7.540;2023-12-20T02:13:40;0.13;;;0.13;;
82873;SDS011;72647;51.622;7.540;2023-12-20T02:15:40;1.75;;;1.10;;
82873;SDS011;72647;51.622;7.540;2023-12-20T02:17:43;0.00;;;0.00;;
82873;SDS011;72647;51.622;7.540;2023-12-20T02:19:44;0.00;;;0.00;;
82873;SDS011;72647;51.622;7.540;2023-12-20T02:21:45;0.00;;;0.00;;
82873;SDS011;72647;51.622;7.540;2023-12-20T02:23:45;0.35;;;0.35;;
82873;SDS011;72647;51.622;7.540;2023-12-20T02:25:45;0.00;;;0.00;;
82873;SDS011;72647;51.622;7.540;2023-12-20T02:27:46;0.32;;;0.32;;
82873;SDS011;72647;51.622;7.540;2023-12-20T02:29:46;0.70;;;0.20;;
82873;SDS011;72647;51.622;7.540;2023-12-20T02:31:47;0.00;;;0.00;;
82873;SDS011;72647;51.622;7.540;2023-12-20T02:33:47;2.03;;;0.67;;
82873;SDS011;72647;51.622;7.540;2023-12-20T02:35:48;0.20;;;0.20;;
82873;SDS011;72647;51.622;7.540;2023-12-20T02:37:48;0.00;;;0.00;;
82873;SDS011;72647;51.622;7.540;2023-12-20T02:39:48;0.53;;;0.50;;
82873;SDS011;72647;51.622;7.540;2023-12-20T02:41:48;7.23;;;0.97;;
82873;SDS011;72647;51.622;7.540;2023-12-20T02:43:49;0.00;;;0.00;;
82873;SDS011;72647;51.622;7.540;2023-12-20T02:45:49;0.27;;;0.27;;
82873;SDS011;72647;51.622;7.540;2023-12-20T02:47:49;0.20;;;0.20;;
82873;SDS011;72647;51.622;7.540;2023-12-20T02:49:50;0.60;;;0.37;;
82873;SDS011;72647;51.622;7.540;2023-12-20T02:51:52;0.28;;;0.28;;
82873;SDS011;72647;51.622;7.540;2023-12-20T02:53:53;0.13;;;0.13;;
82873;SDS011;72647;51.622;7.540;2023-12-20T02:55:53;0.00;;;0.00;;
82873;SDS011;72647;51.622;7.540;2023-12-20T02:57:53;0.00;;;0.00;;
82873;SDS011;72647;51.622;7.540;2023-12-20T02:59:53;3.00;;;2.33;;
82873;SDS011;72647;51.622;7.540;2023-12-20T03:01:53;0.20;;;0.20;;
82873;SDS011;72647;51.622;7.540;2023-12-20T03:03:53;0.10;;;0.10;;
82873;SDS011;72647;51.622;7.540;2023-12-20T03:05:54;0.20;;;0.20;;
82873;SDS011;72647;51.622;7.540;2023-12-20T03:07:54;1.20;;;0.43;;
82873;SDS011;72647;51.622;7.540;2023-12-20T03:09:54;0.00;;;0.00;;
82873;SDS011;72647;51.622;7.540;2023-12-20T03:11:54;0.00;;;0.00;;
82873;SDS011;72647;51.622;7.540;2023-12-20T03:13:55;2.13;;;1.30;;
82873;SDS011;72647;51.622;7.540;2023-12-20T03:15:55;0.03;;;0.03;;
82873;SDS011;72647;51.622;7.540;2023-12-20T03:17:55;0.00;;;0.00;;
82873;SDS011;72647;51.622;7.540;2023-12-20T03:19:55;1.30;;;1.20;;
82873;SDS011;72647;51.622;7.540;2023-12-20T03:21:56;3.10;;;1.03;;
82873;SDS011;72647;51.622;7.540;2023-12-20T03:23:56;0.23;;;0.23;;
82873;SDS011;72647;51.622;7.540;2023-12-20T03:25:56;0.10;;;0.10;;
82873;SDS011;72647;51.622;7.540;2023-12-20T03:27:56;0.20;;;0.20;;
82873;SDS011;72647;51.622;7.540;2023-12-20T03:29:56;0.50;;;0.50;;
82873;SDS011;72647;51.622;7.540;2023-12-20T03:31:57;2.97;;;1.33;;
82873;SDS011;72647;51.622;7.540;2023-12-20T03:33:57;0.00;;;0.00;;
82873;SDS011;72647;51.622;7.540;2023-12-20T03:35:57;0.10;;;0.10;;
82873;SDS011;72647;51.622;7.540;2023-12-20T03:37:57;0.00;;;0.00;;
82873;SDS011;72647;51.622;7.540;2023-12-20T03:40:00;1.98;;;0.57;;
82873;SDS011;72647;51.622;7.540;2023-12-20T03:42:00;0.00;;;0.00;;
82873;SDS011;72647;51.622;7.540;2023-12-20T03:44:00;0.17;;;0.17;;
82873;SDS011;72647;51.622;7.540;2023-12-20T03:46:00;1.10;;;0.13;;
82873;SDS011;72647;51.622;7.540;2023-12-20T03:48:01;0.30;;;0.28;;
82873;SDS011;72647;51.622;7.540;2023-12-20T03:50:01;0.37;;;0.20;;
82873;SDS011;72647;51.622;7.540;2023-12-20T03:52:02;0.15;;;0.15;;
82873;SDS011;72647;51.622;7.540;2023-12-20T03:54:03;0.03;;;0.03;;
82873;SDS011;72647;51.622;7.540;2023-12-20T03:56:03;0.00;;;0.00;;
82873;SDS011;72647;51.622;7.540;2023-12-20T03:58:04;1.40;;;1.30;;
82873;SDS011;72647;51.622;7.540;2023-12-20T04:00:05;0.00;;;0.00;;
82873;SDS011;72647;51.622;7.540;2023-12-20T04:02:09;0.68;;;0.47;;
82873;SDS011;72647;51.622;7.540;2023-12-20T04:04:09;1.80;;;0.70;;
82873;SDS011;72647;51.622;7.540;2023-12-20T04:06:09;0.00;;;0.00;;
82873;SDS011;72647;51.622;7.540;2023-12-20T04:08:10;0.10;;;0.10;;
82873;SDS011;72647;51.622;7.540;2023-12-20T04:10:11;0.10;;;0.10;;
82873;SDS011;72647;51.622;7.540;2023-12-20T04:12:11;0.00;;;0.00;;
82873;SDS011;72647;51.622;7.540;2023-12-20T04:14:11;0.00;;;0.00;;
82873;SDS011;72647;51.622;7.540;2023-12-20T04:16:11;0.20;;;0.20;;
82873;SDS011;72647;51.622;7.540;2023-12-20T04:18:11;0.10;;;0.10;;
82873;SDS011;72647;51.622;7.540;2023-12-20T04:20:12;0.13;;;0.13;;
82873;SDS011;72647;51.622;7.540;2023-12-20T04:22:12;0.10;;;0.10;;
82873;SDS011;72647;51.622;7.540;2023-12-20T04:24:12;0.00;;;0.00;;
82873;SDS011;72647;51.622;7.540;2023-12-20T04:26:12;1.20;;;1.00;;
82873;SDS011;72647;51.622;7.540;2023-12-20T04:28:13;0.73;;;0.57;;
82873;SDS011;72647;51.622;7.540;2023-12-20T04:30:13;0.13;;;0.13;;
82873;SDS011;72647;51.622;7.540;2023-12-20T04:32:13;0.08;;;0.08;;
82873;SDS011;72647;51.622;7.540;2023-12-20T04:34:13;0.00;;;0.00;;
82873;SDS011;72647;51.622;7.540;2023-12-20T04:36:13;1.23;;;1.20;;
82873;SDS011;72647;51.622;7.540;2023-12-20T04:38:14;0.65;;;0.65;;
82873;SDS011;72647;51.622;7.540;2023-12-20T04:40:14;0.50;;;0.50;;
82873;SDS011;72647;51.622;7.540;2023-12-20T04:42:14;0.40;;;0.10;;
82873;SDS011;72647;51.622;7.540;2023-12-20T04:44:15;0.63;;;0.47;;
82873;SDS011;72647;51.622;7.540;2023-12-20T04:46:15;5.22;;;0.32;;
82873;SDS011;72647;51.622;7.540;2023-12-20T04:48:15;1.40;;;1.30;;
82873;SDS011;72647;51.622;7.540;2023-12-20T04:50:15;0.00;;;0.00;;
82873;SDS011;72647;51.622;7.540;2023-12-20T04:52:16;0.10;;;0.10;;
82873;SDS011;72647;51.622;7.540;2023-12-20T04:54:16;1.23;;;0.53;;
82873;SDS011;72647;51.622;7.540;2023-12-20T04:56:16;0.17;;;0.17;;
82873;SDS011;72647;51.622;7.540;2023-12-20T04:58:16;0.30;;;0.30;;
82873;SDS011;72647;51.622;7.540;2023-12-20T05:00:17;1.17;;;0.43;;
82873;SDS011;72647;51.622;7.540;2023-12-20T05:02:17;5.57;;;1.52;;
82873;SDS011;72647;51.622;7.540;2023-12-20T05:04:17;5.73;;;0.87;;
82873;SDS011;72647;51.622;7.540;2023-12-20T05:06:18;0.70;;;0.67;;
82873;SDS011;72647;51.622;7.540;2023-12-20T05:08:18;0.07;;;0.07;;
82873;SDS011;72647;51.622;7.540;2023-12-20T05:10:18;0.33;;;0.33;;
82873;SDS011;72647;51.622;7.540;2023-12-20T05:12:18;0.47;;;0.30;;
82873;SDS011;72647;51.622;7.540;2023-12-20T05:14:18;0.20;;;0.20;;
82873;SDS011;72647;51.622;7.540;2023-12-20T05:16:19;0.17;;;0.17;;
82873;SDS011;72647;51.622;7.540;2023-12-20T05:18:20;0.80;;;0.77;;
82873;SDS011;72647;51.622;7.540;2023-12-20T05:20:20;0.65;;;0.65;;
82873;SDS011;72647;51.622;7.540;2023-12-20T05:22:21;19.17;;;1.20;;
82873;SDS011;72647;51.622;7.540;2023-12-20T05:24:21;0.98;;;0.47;;
82873;SDS011;72647;51.622;7.540;2023-12-20T05:26:22;0.00;;;0.00;;
82873;SDS011;72647;51.622;7.540;2023-12-20T05:28:22;0.10;;;0.10;;
82873;SDS011;72647;51.622;7.540;2023-12-20T05:30:22;0.80;;;0.80;;
82873;SDS011;72647;51.622;7.540;2023-12-20T05:32:23;0.37;;;0.37;;
82873;SDS011;72647;51.622;7.540;2023-12-20T05:34:23;0.80;;;0.45;;
82873;SDS011;72647;51.622;7.540;2023-12-20T05:36:24;1.63;;;1.52;;
82873;SDS011;72647;51.622;7.540;2023-12-20T05:38:24;3.10;;;0.70;;
82873;SDS011;72647;51.622;7.540;2023-12-20T05:40:25;0.73;;;0.73;;
82873;SDS011;72647;51.622;7.540;2023-12-20T05:42:25;0.00;;;0.00;;
82873;SDS011;72647;51.622;7.540;2023-12-20T05:44:25;0.40;;;0.40;;
82873;SDS011;72647;51.622;7.540;2023-12-20T05:46:26;1.55;;;0.40;;
82873;SDS011;72647;51.622;7.540;2023-12-20T05:48:27;0.95;;;0.47;;
82873;SDS011;72647;51.622;7.540;2023-12-20T05:50:27;0.30;;;0.30;;
82873;SDS011;72647;51.622;7.540;2023-12-20T05:52:27;0.20;;;0.20;;
82873;SDS011;72647;51.622;7.540;2023-12-20T05:54:28;12.13;;;5.50;;
82873;SDS011;72647;51.622;7.540;2023-12-20T05:56:28;13.10;;;5.77;;
82873;SDS011;72647;51.622;7.540;2023-12-20T05:58:28;16.63;;;6.10;;
82873;SDS011;72647;51.622;7.540;2023-12-20T06:00:29;20.75;;;7.18;;
82873;SDS011;72647;51.622;7.540;2023-12-20T06:02:29;18.20;;;6.72;;
82873;SDS011;72647;51.622;7.540;2023-12-20T06:04:30;21.53;;;7.30;;
82873;SDS011;72647;51.622;7.540;2023-12-20T06:06:30;19.65;;;7.50;;
82873;SDS011;72647;51.622;7.540;2023-12-20T06:08:30;22.67;;;7.97;;
82873;SDS011;72647;51.622;7.540;2023-12-20T06:10:30;17.47;;;6.47;;
82873;SDS011;72647;51.622;7.540;2023-12-20T06:12:31;19.87;;;7.67;;
82873;SDS011;72647;51.622;7.540;2023-12-20T06:14:33;25.92;;;8.05;;
82873;SDS011;72647;51.622;7.540;2023-12-20T06:16:33;17.63;;;7.67;;
82873;SDS011;72647;51.622;7.540;2023-12-20T06:18:33;18.83;;;6.90;;
82873;SDS011;72647;51.622;7.540;2023-12-20T06:20:34;20.08;;;7.07;;
82873;SDS011;72647;51.622;7.540;2023-12-20T06:22:34;28.43;;;7.80;;
82873;SDS011;72647;51.622;7.540;2023-12-20T06:24:34;19.63;;;7.35;;
82873;SDS011;72647;51.622;7.540;2023-12-20T06:26:35;20.13;;;7.63;;
82873;SDS011;72647;51.622;7.540;2023-12-20T06:28:35;16.67;;;7.10;;
82873;SDS011;72647;51.622;7.540;2023-12-20T06:30:35;22.35;;;7.43;;
82873;SDS011;72647;51.622;7.540;2023-12-20T06:32:36;18.30;;;6.50;;
82873;SDS011;72647;51.622;7.540;2023-12-20T06:34:37;21.00;;;7.35;;
82873;SDS011;72647;51.622;7.540;2023-12-20T06:36:38;16.98;;;6.38;;
82873;SDS011;72647;51.622;7.540;2023-12-20T06:38:38;26.07;;;7.57;;
82873;SDS011;72647;51.622;7.540;2023-12-20T06:40:42;17.98;;;6.90;;
82873;SDS011;72647;51.622;7.540;2023-12-20T06:42:42;16.35;;;6.97;;
82873;SDS011;72647;51.622;7.540;2023-12-20T06:44:43;24.70;;;8.50;;
82873;SDS011;72647;51.622;7.540;2023-12-20T06:46:43;24.47;;;7.30;;
82873;SDS011;72647;51.622;7.540;2023-12-20T06:48:44;22.33;;;7.53;;
82873;SDS011;72647;51.622;7.540;2023-12-20T06:50:44;18.20;;;7.40;;
82873;SDS011;72647;51.622;7.540;2023-12-20T06:52:44;21.37;;;7.57;;
82873;SDS011;72647;51.622;7.540;2023-12-20T06:54:44;17.83;;;7.40;;
82873;SDS011;72647;51.622;7.540;2023-12-20T06:56:45;29.03;;;7.83;;
82873;SDS011;72647;51.622;7.540;2023-12-20T06:58:46;13.70;;;6.70;;
82873;SDS011;72647;51.622;7.540;2023-12-20T07:00:46;21.27;;;7.70;;
82873;SDS011;72647;51.622;7.540;2023-12-20T07:02:46;12.53;;;4.80;;
82873;SDS011;72647;51.622;7.540;2023-12-20T07:04:47;18.63;;;7.07;;
82873;SDS011;72647;51.622;7.540;2023-12-20T07:06:48;14.93;;;6.43;;
82873;SDS011;72647;51.622;7.540;2023-12-20T07:08:52;20.02;;;7.13;;
82873;SDS011;72647;51.622;7.540;2023-12-20T07:10:52;19.45;;;6.45;;
82873;SDS011;72647;51.622;7.540;2023-12-20T07:12:52;21.63;;;8.10;;
82873;SDS011;72647;51.622;7.540;2023-12-20T07:14:55;29.10;;;7.10;;
82873;SDS011;72647;51.622;7.540;2023-12-20T07:16:56;18.75;;;6.05;;
82873;SDS011;72647;51.622;7.540;2023-12-20T07:18:56;18.03;;;6.90;;
82873;SDS011;72647;51.622;7.540;2023-12-20T07:20:57;17.73;;;7.03;;
82873;SDS011;72647;51.622;7.540;2023-12-20T07:22:57;13.97;;;5.20;;
82873;SDS011;72647;51.622;7.540;2023-12-20T07:25:00;15.07;;;6.40;;
82873;SDS011;72647;51.622;7.540;2023-12-20T07:27:00;18.17;;;6.85;;
82873;SDS011;72647;51.622;7.540;2023-12-20T07:29:01;15.40;;;6.67;;
82873;SDS011;72647;51.622;7.540;2023-12-20T07:31:01;12.63;;;6.43;;
82873;SDS011;72647;51.622;7.540;2023-12-20T07:33:01;21.90;;;6.70;;
82873;SDS011;72647;51.622;7.540;2023-12-20T07:35:02;14.07;;;6.05;;
82873;SDS011;72647;51.622;7.540;2023-12-20T07:37:03;15.60;;;6.15;;
82873;SDS011;72647;51.622;7.540;2023-12-20T07:39:03;23.58;;;7.25;;
82873;SDS011;72647;51.622;7.540;2023-12-20T07:41:04;16.60;;;6.07;;
82873;SDS011;72647;51.622;7.540;2023-12-20T07:43:05;21.65;;;6.65;;
82873;SDS011;72647;51.622;7.540;2023-12-20T07:45:05;15.87;;;6.63;;
82873;SDS011;72647;51.622;7.540;2023-12-20T07:47:05;14.27;;;6.30;;
82873;SDS011;72647;51.622;7.540;2023-12-20T07:49:05;19.42;;;6.13;;
82873;SDS011;72647;51.622;7.540;2023-12-20T07:51:06;14.77;;;5.40;;
82873;SDS011;72647;51.622;7.540;2023-12-20T07:53:08;22.30;;;5.60;;
82873;SDS011;72647;51.622;7.540;2023-12-20T07:55:08;15.03;;;6.43;;
82873;SDS011;72647;51.622;7.540;2023-12-20T07:57:08;18.17;;;5.80;;
82873;SDS011;72647;51.622;7.540;2023-12-20T07:59:08;13.13;;;5.57;;
82873;SDS011;72647;51.622;7.540;2023-12-20T08:01:10;17.80;;;6.17;;
82873;SDS011;72647;51.622;7.540;2023-12-20T08:03:12;14.73;;;5.85;;
82873;SDS011;72647;51.622;7.540;2023-12-20T08:05:12;14.60;;;5.93;;
82873;SDS011;72647;51.622;7.540;2023-12-20T08:07:13;17.45;;;6.28;;
82873;SDS011;72647;51.622;7.540;2023-12-20T08:09:14;12.43;;;4.30;;
82873;SDS011;72647;51.622;7.540;2023-12-20T08:11:15;19.55;;;5.15;;
82873;SDS011;72647;51.622;7.540;2023-12-20T08:13:16;18.17;;;5.50;;
82873;SDS011;72647;51.622;7.540;2023-12-20T08:15:16;13.70;;;6.00;;
82873;SDS011;72647;51.622;7.540;2023-12-20T08:17:16;13.53;;;5.87;;
82873;SDS011;72647;51.622;7.540;2023-12-20T08:19:18;19.38;;;5.88;;
82873;SDS011;72647;51.622;7.540;2023-12-20T08:21:18;11.77;;;5.17;;
82873;SDS011;72647;51.622;7.540;2023-12-20T08:23:20;11.70;;;4.88;;
82873;SDS011;72647;51.622;7.540;2023-12-20T08:25:21;14.07;;;5.68;;
82873;SDS011;72647;51.622;7.540;2023-12-20T08:27:22;18.00;;;6.13;;
82873;SDS011;72647;51.622;7.540;2023-12-20T08:29:22;13.70;;;6.35;;
82873;SDS011;72647;51.622;7.540;2023-12-20T08:31:23;13.50;;;5.03;;
82873;SDS011;72647;51.622;7.540;2023-12-20T08:33:24;20.08;;;6.32;;
82873;SDS011;72647;51.622;7.540;2023-12-20T08:35:24;18.23;;;5.80;;
82873;SDS011;72647;51.622;7.540;2023-12-20T08:37:24;15.90;;;5.47;;
82873;SDS011;72647;51.622;7.540;2023-12-20T08:39:24;20.27;;;6.10;;
82873;SDS011;72647;51.622;7.540;2023-12-20T08:41:25;13.90;;;5.10;;
82873;SDS011;72647;51.622;7.540;2023-12-20T08:43:27;14.80;;;5.25;;
82873;SDS011;72647;51.622;7.540;2023-12-20T08:45:28;13.05;;;5.05;;
82873;SDS011;72647;51.622;7.540;2023-12-20T08:47:28;15.90;;;5.25;;
82873;SDS011;72647;51.622;7.540;2023-12-20T08:49:30;13.10;;;4.60;;
82873;SDS011;72647;51.622;7.540;2023-12-20T08:51:31;10.63;;;5.07;;
82873;SDS011;72647;51.622;7.540;2023-12-20T08:53:31;18.27;;;6.10;;
82873;SDS011;72647;51.622;7.540;2023-12-20T08:55:31;15.30;;;4.60;;
82873;SDS011;72647;51.622;7.540;2023-12-20T08:57:32;11.90;;;4.63;;
82873;SDS011;72647;51.622;7.540;2023-12-20T08:59:34;19.83;;;5.18;;
82873;SDS011;72647;51.622;7.540;2023-12-20T09:01:34;12.70;;;4.50;;
82873;SDS011;72647;51.622;7.540;2023-12-20T09:03:35;16.20;;;5.32;;
82873;SDS011;72647;51.622;7.540;2023-12-20T09:05:35;14.50;;;4.83;;
82873;SDS011;72647;51.622;7.540;2023-12-20T09:07:35;14.23;;;4.90;;
82873;SDS011;72647;51.622;7.540;2023-12-20T09:09:39;15.10;;;5.60;;
82873;SDS011;72647;51.622;7.540;2023-12-20T09:11:40;21.55;;;5.50;;
82873;SDS011;72647;51.622;7.540;2023-12-20T09:13:40;13.40;;;5.28;;
82873;SDS011;72647;51.622;7.540;2023-12-20T09:15:40;13.43;;;4.90;;
82873;SDS011;72647;51.622;7.540;2023-12-20T09:17:41;16.50;;;5.05;;
82873;SDS011;72647;51.622;7.540;2023-12-20T09:19:42;8.50;;;4.53;;
82873;SDS011;72647;51.622;7.540;2023-12-20T09:21:43;12.60;;;4.18;;
82873;SDS011;72647;51.622;7.540;2023-12-20T09:23:44;13.47;;;5.17;;
82873;SDS011;72647;51.622;7.540;2023-12-20T09:25:44;16.55;;;5.68;;
82873;SDS011;72647;51.622;7.540;2023-12-20T09:27:44;13.67;;;5.40;;
82873;SDS011;72647;51.622;7.540;2023-12-20T09:29:44;12.70;;;5.53;;
82873;SDS011;72647;51.622;7.540;2023-12-20T09:31:45;9.75;;;4.82;;
82873;SDS011;72647;51.622;7.540;2023-12-20T09:33:46;18.30;;;6.22;;
82873;SDS011;72647;51.622;7.540;2023-12-20T09:35:46;9.67;;;4.50;;
82873;SDS011;72647;51.622;7.540;2023-12-20T09:37:47;11.57;;;5.13;;
82873;SDS011;72647;51.622;7.540;2023-12-20T09:39:47;16.93;;;6.13;;
82873;SDS011;72647;51.622;7.540;2023-12-20T09:41:51;14.80;;;4.83;;
82873;SDS011;72647;51.622;7.540;2023-12-20T09:43:57;14.82;;;5.57;;
82873;SDS011;72647;51.622;7.540;2023-12-20T09:46:00;11.98;;;5.18;;
82873;SDS011;72647;51.622;7.540;2023-12-20T09:48:00;13.15;;;4.78;;
82873;SDS011;72647;51.622;7.540;2023-12-20T09:50:02;10.77;;;4.65;;
82873;SDS011;72647;51.622;7.540;2023-12-20T09:52:02;19.77;;;5.10;;
82873;SDS011;72647;51.622;7.540;2023-12-20T09:54:04;11.30;;;4.60;;
82873;SDS011;72647;51.622;7.540;2023-12-20T09:56:05;11.97;;;4.33;;
82873;SDS011;72647;51.622;7.540;2023-12-20T09:58:05;13.35;;;4.95;;
82873;SDS011;72647;51.622;7.540;2023-12-20T10:00:07;11.75;;;4.13;;
82873;SDS011;72647;51.622;7.540;2023-12-20T10:02:09;13.27;;;4.15;;
82873;SDS011;72647;51.622;7.540;2023-12-20T10:04:12;13.15;;;4.45;;
82873;SDS011;72647;51.622;7.540;2023-12-20T10:06:13;9.57;;;4.35;;
82873;SDS011;72647;51.622;7.540;2023-12-20T10:08:13;11.17;;;4.30;;
82873;SDS011;72647;51.622;7.540;2023-12-20T10:10:13;9.97;;;5.30;;
82873;SDS011;72647;51.622;7.540;2023-12-20T10:12:14;11.82;;;4.97;;
82873;SDS011;72647;51.622;7.540;2023-12-20T10:14:15;14.50;;;4.93;;
82873;SDS011;72647;51.622;7.540;2023-12-20T10:16:16;17.13;;;5.45;;
82873;SDS011;72647;51.622;7.540;2023-12-20T10:18:16;12.53;;;4.80;;
82873;SDS011;72647;51.622;7.540;2023-12-20T10:20:16;15.47;;;5.50;;
82873;SDS011;72647;51.622;7.540;2023-12-20T10:22:16;11.23;;;4.30;;
82873;SDS011;72647;51.622;7.540;2023-12-20T10:24:17;13.23;;;4.27;;
82873;SDS011;72647;51.622;7.540;2023-12-20T10:26:21;15.13;;;4.18;;
82873;SDS011;72647;51.622;7.540;2023-12-20T10:28:21;8.48;;;4.40;;
82873;SDS011;72647;51.622;7.540;2023-12-20T10:30:23;8.52;;;4.13;;
82873;SDS011;72647;51.622;7.540;2023-12-20T10:34:25;16.40;;;5.37;;
82873;SDS011;72647;51.622;7.540;2023-12-20T10:36:28;10.10;;;4.53;;
82873;SDS011;72647;51.622;7.540;2023-12-20T10:38:28;14.05;;;4.20;;
82873;SDS011;72647;51.622;7.540;2023-12-20T10:40:30;12.63;;;4.40;;
82873;SDS011;72647;51.622;7.540;2023-12-20T10:42:31;9.90;;;4.75;;
82873;SDS011;72647;51.622;7.540;2023-12-20T10:44:31;13.38;;;6.13;;
82873;SDS011;72647;51.622;7.540;2023-12-20T10:46:33;13.20;;;4.60;;
82873;SDS011;72647;51.622;7.540;2023-12-20T10:48:33;11.52;;;4.65;;
82873;SDS011;72647;51.622;7.540;2023-12-20T10:50:34;12.80;;;5.63;;
82873;SDS011;72647;51.622;7.540;2023-12-20T10:54:36;12.67;;;5.10;;
82873;SDS011;72647;51.622;7.540;2023-12-20T10:56:36;10.15;;;4.78;;
82873;SDS011;72647;51.622;7.540;2023-12-20T11:00:40;27.40;;;4.50;;
82873;SDS011;72647;51.622;7.540;2023-12-20T11:02:41;9.48;;;4.50;;
82873;SDS011;72647;51.622;7.540;2023-12-20T11:07:06;14.18;;;5.80;;
82873;SDS011;72647;51.622;7.540;2023-12-20T11:11:16;14.85;;;6.60;;
82873;SDS011;72647;51.622;7.540;2023-12-20T11:13:21;16.38;;;5.78;;
82873;SDS011;72647;51.622;7.540;2023-12-20T11:15:22;12.52;;;5.75;;
82873;SDS011;72647;51.622;7.540;2023-12-20T11:17:23;11.27;;;4.80;;
82873;SDS011;72647;51.622;7.540;2023-12-20T11:19:24;11.60;;;4.53;;
82873;SDS011;72647;51.622;7.540;2023-12-20T11:21:25;10.77;;;4.83;;
82873;SDS011;72647;51.622;7.540;2023-12-20T11:23:29;12.05;;;5.03;;
82873;SDS011;72647;51.622;7.540;2023-12-20T11:25:33;12.32;;;5.80;;
82873;SDS011;72647;51.622;7.540;2023-12-20T11:27:34;10.15;;;5.05;;
82873;SDS011;72647;51.622;7.540;2023-12-20T11:29:35;13.32;;;5.68;;
82873;SDS011;72647;51.622;7.540;2023-12-20T11:31:40;16.65;;;6.38;;
82873;SDS011;72647;51.622;7.540;2023-12-20T11:33:40;13.52;;;5.90;;
82873;SDS011;72647;51.622;7.540;2023-12-20T11:35:40;13.03;;;5.53;;
82873;SDS011;72647;51.622;7.540;2023-12-20T11:37:41;8.20;;;4.85;;
82873;SDS011;72647;51.622;7.540;2023-12-20T11:39:44;15.30;;;5.18;;
82873;SDS011;72647;51.622;7.540;2023-12-20T11:41:44;12.45;;;4.50;;
82873;SDS011;72647;51.622;7.540;2023-12-20T11:43:44;10.93;;;3.97;;
82873;SDS011;72647;51.622;7.540;2023-12-20T11:45:51;17.05;;;5.47;;
82873;SDS011;72647;51.622;7.540;2023-12-20T11:47:51;13.85;;;5.50;;
82873;SDS011;72647;51.622;7.540;2023-12-20T11:49:53;11.38;;;4.88;;
82873;SDS011;72647;51.622;7.540;2023-12-20T11:51:55;13.82;;;4.75;;
82873;SDS011;72647;51.622;7.540;2023-12-20T11:53:57;11.63;;;4.30;;
82873;SDS011;72647;51.622;7.540;2023-12-20T11:55:57;14.93;;;4.53;;
82873;SDS011;72647;51.622;7.540;2023-12-20T11:57:57;11.17;;;4.87;;
82873;SDS011;72647;51.622;7.540;2023-12-20T11:59:58;12.00;;;4.15;;
82873;SDS011;72647;51.622;7.540;2023-12-20T12:01:58;8.30;;;3.53;;
82873;SDS011;72647;51.622;7.540;2023-12-20T12:04:04;11.30;;;4.93;;
82873;SDS011;72647;51.622;7.540;2023-12-20T12:06:04;13.35;;;5.10;;
82873;SDS011;72647;51.622;7.540;2023-12-20T12:08:05;9.07;;;3.97;;
82873;SDS011;72647;51.622;7.540;2023-12-20T12:10:06;12.15;;;5.35;;
82873;SDS011;72647;51.622;7.540;2023-12-20T12:12:06;9.63;;;4.78;;
82873;SDS011;72647;51.622;7.540;2023-12-20T12:14:07;10.63;;;5.13;;